Terminal Aerodrome Forecast
Issued by NWS

Home | Current Version | Previous Version | Text Only | Print | Product List | Glossary On
Versions: 1 2 3 4 5 6 7 8 9 10 11 12
000
FTUS43 KIWX 280100 AAA
TAFSBN
TAF AMD
KSBN 280100Z 2801/2824 29013KT P6SM OVC017
     FM280300 27010KT P6SM BKN020
     FM281500 32005KT P6SM BKN035
     FM281800 30007KT P6SM SCT030 BKN100=

USA.gov is the U.S. government's official web portal to all federal, state and local government web resources and services.